createdAt,value
2022-12-24T00:02:10.344Z,20.63
2022-12-24T00:05:12.159Z,23.13
2022-12-24T00:08:13.733Z,21.60
2022-12-24T00:11:15.383Z,17.10
2022-12-24T00:14:16.968Z,18.60
2022-12-24T00:17:18.674Z,15.67
2022-12-24T00:20:20.262Z,15.63
2022-12-24T00:23:21.906Z,13.70
2022-12-24T00:26:23.577Z,11.90
2022-12-24T00:29:25.247Z,12.17
2022-12-24T00:32:26.918Z,9.90
2022-12-24T00:35:28.571Z,9.43
2022-12-24T00:38:30.216Z,9.93
2022-12-24T00:41:31.832Z,9.20
2022-12-24T00:44:33.428Z,8.80
2022-12-24T00:47:35.015Z,9.43
2022-12-24T00:50:36.686Z,8.50
2022-12-24T00:53:39.457Z,9.93
2022-12-24T00:56:41.142Z,7.13
2022-12-24T00:59:42.829Z,9.50
2022-12-24T01:02:44.739Z,8.07
2022-12-24T01:05:48.458Z,12.43
2022-12-24T01:08:50.573Z,11.50
2022-12-24T01:11:52.133Z,12.37
2022-12-24T01:14:53.900Z,13.47
2022-12-24T01:17:55.583Z,12.83
2022-12-24T01:20:57.255Z,11.83
2022-12-24T01:23:58.871Z,10.40
2022-12-24T01:27:00.541Z,10.07
2022-12-24T01:30:02.268Z,8.10
2022-12-24T01:33:03.907Z,8.83
2022-12-24T01:36:05.699Z,9.83
2022-12-24T01:39:07.321Z,11.73
2022-12-24T01:42:45.903Z,8.70
2022-12-24T01:45:51.745Z,9.00
2022-12-24T01:48:55.799Z,9.13
2022-12-24T01:52:03.191Z,7.67
2022-12-24T01:55:10.051Z,8.80
2022-12-24T01:58:13.752Z,9.97
2022-12-24T02:01:15.733Z,9.03
2022-12-24T02:04:36.277Z,8.97
2022-12-24T02:07:38.327Z,6.03
2022-12-24T02:10:39.956Z,8.80
2022-12-24T02:13:43.776Z,7.00
2022-12-24T02:16:50.742Z,8.37
2022-12-24T02:20:12.572Z,8.03
2022-12-24T02:23:16.758Z,9.83
2022-12-24T02:26:28.120Z,11.30
2022-12-24T02:29:48.609Z,9.50
2022-12-24T02:32:53.048Z,9.57
2022-12-24T02:35:59.402Z,10.90
2022-12-24T02:39:02.839Z,10.93
2022-12-24T02:42:07.962Z,11.80
2022-12-24T02:45:11.749Z,12.10
2022-12-24T02:48:14.982Z,11.27
2022-12-24T02:51:16.557Z,11.07
2022-12-24T02:54:18.258Z,10.30
2022-12-24T02:57:23.010Z,10.00
2022-12-24T03:00:25.121Z,11.20
2022-12-24T03:03:32.764Z,10.33
2022-12-24T03:06:40.126Z,12.30
2022-12-24T03:09:51.089Z,12.03
2022-12-24T03:12:55.752Z,10.77
2022-12-24T03:15:57.469Z,10.53
2022-12-24T03:18:59.832Z,11.67
2022-12-24T03:22:04.208Z,12.60
2022-12-24T03:25:06.091Z,11.50
2022-12-24T03:28:09.503Z,11.77
2022-12-24T03:31:11.601Z,11.70
2022-12-24T03:34:14.291Z,11.90
2022-12-24T03:37:15.949Z,11.77
2022-12-24T03:40:17.810Z,12.03
2022-12-24T03:43:19.441Z,12.43
2022-12-24T03:46:21.130Z,11.27
2022-12-24T03:49:22.875Z,11.13
2022-12-24T03:52:24.732Z,10.87
2022-12-24T03:55:26.345Z,12.50
2022-12-24T03:58:27.927Z,12.17
2022-12-24T04:01:29.619Z,13.37
2022-12-24T04:04:33.508Z,13.93
2022-12-24T04:07:35.246Z,14.10
2022-12-24T04:10:36.787Z,13.87
2022-12-24T04:13:38.392Z,12.17
2022-12-24T04:16:40.002Z,12.73
2022-12-24T04:19:41.876Z,12.87
2022-12-24T04:22:43.594Z,11.40
2022-12-24T04:25:45.193Z,10.73
2022-12-24T04:28:46.970Z,12.07
2022-12-24T04:31:48.591Z,12.07
2022-12-24T04:34:50.265Z,12.20
2022-12-24T04:37:51.846Z,11.97
2022-12-24T04:41:03.917Z,10.07
2022-12-24T04:44:05.604Z,11.67
2022-12-24T04:47:07.225Z,11.53
2022-12-24T04:50:09.051Z,12.50
2022-12-24T04:53:10.823Z,12.57
2022-12-24T04:56:13.904Z,14.40
2022-12-24T04:59:15.492Z,9.40
2022-12-24T05:02:17.321Z,11.97
2022-12-24T05:05:19.129Z,9.03
2022-12-24T05:08:20.750Z,8.50
2022-12-24T05:11:22.534Z,10.47
2022-12-24T05:14:24.326Z,11.70
2022-12-24T05:17:26.020Z,13.10
2022-12-24T05:20:27.649Z,14.23
2022-12-24T05:23:47.557Z,12.37
2022-12-24T05:26:53.725Z,14.73
2022-12-24T05:29:55.571Z,15.07
2022-12-24T05:32:57.126Z,14.73
2022-12-24T05:35:58.727Z,14.27
2022-12-24T05:39:00.503Z,14.97
2022-12-24T05:42:02.096Z,16.27
2022-12-24T05:45:03.825Z,14.53
2022-12-24T05:48:08.167Z,15.97
2022-12-24T05:51:10.655Z,16.60
2022-12-24T05:54:12.284Z,14.90
2022-12-24T05:57:13.922Z,15.13
2022-12-24T06:00:15.720Z,13.50
2022-12-24T06:03:23.068Z,15.67
2022-12-24T06:06:25.884Z,19.60
2022-12-24T06:09:33.785Z,6.73
2022-12-24T06:12:36.335Z,8.13
2022-12-24T06:15:37.989Z,7.27
2022-12-24T06:18:42.713Z,8.17
2022-12-24T06:21:44.459Z,7.37
2022-12-24T06:24:54.569Z,7.80
2022-12-24T06:27:56.184Z,11.07
2022-12-24T06:31:02.600Z,9.03
2022-12-24T06:34:05.184Z,9.03
2022-12-24T06:37:07.004Z,10.90
2022-12-24T06:40:09.087Z,10.43
2022-12-24T06:43:11.066Z,10.53
2022-12-24T06:46:13.156Z,9.97
2022-12-24T06:49:14.856Z,15.43
2022-12-24T06:52:16.509Z,11.10
2022-12-24T06:55:18.400Z,15.40
2022-12-24T06:58:20.081Z,14.93
2022-12-24T07:01:21.785Z,18.80
2022-12-24T07:04:23.615Z,14.00
2022-12-24T07:07:25.393Z,16.33
2022-12-24T07:10:27.038Z,11.00
2022-12-24T07:13:29.391Z,12.03
2022-12-24T07:16:31.072Z,9.80
2022-12-24T07:19:34.208Z,8.90
2022-12-24T07:22:35.845Z,12.67
2022-12-24T07:25:37.547Z,16.53
2022-12-24T07:28:39.209Z,15.10
2022-12-24T07:31:40.998Z,21.73
2022-12-24T07:34:42.773Z,22.27
2022-12-24T07:37:44.326Z,21.30
2022-12-24T07:40:45.979Z,21.33
2022-12-24T07:43:47.641Z,24.40
2022-12-24T07:46:49.324Z,29.40
2022-12-24T07:49:51.035Z,29.07
2022-12-24T07:52:53.350Z,23.83
2022-12-24T07:55:55.660Z,34.63
2022-12-24T07:58:57.554Z,22.20
2022-12-24T08:01:59.411Z,26.67
2022-12-24T08:05:01.193Z,22.73
2022-12-24T08:08:02.870Z,20.97
2022-12-24T08:11:05.378Z,28.20
2022-12-24T08:14:07.302Z,24.83
2022-12-24T08:17:08.982Z,17.57
2022-12-24T08:20:11.131Z,16.30
2022-12-24T08:23:12.752Z,17.20
2022-12-24T08:26:14.407Z,18.37
2022-12-24T08:29:16.151Z,21.70
2022-12-24T08:32:18.007Z,21.80
2022-12-24T08:35:19.591Z,22.80
2022-12-24T08:38:21.500Z,21.20
2022-12-24T08:41:23.202Z,20.63
2022-12-24T08:44:27.369Z,16.23
2022-12-24T08:47:29.077Z,13.07
2022-12-24T08:50:30.695Z,12.30
2022-12-24T08:53:32.310Z,12.80
2022-12-24T08:56:34.579Z,18.40
2022-12-24T08:59:36.191Z,22.07
2022-12-24T09:02:37.913Z,30.50
2022-12-24T09:05:40.057Z,46.13
2022-12-24T09:08:42.094Z,35.33
2022-12-24T09:11:43.847Z,50.73
2022-12-24T09:14:45.470Z,58.67
2022-12-24T09:17:47.074Z,53.83
2022-12-24T09:20:53.862Z,61.80
2022-12-24T09:24:01.352Z,61.90
2022-12-24T09:27:04.006Z,56.67
2022-12-24T09:30:06.614Z,52.63
2022-12-24T09:33:08.227Z,51.70
2022-12-24T09:36:10.186Z,33.43
2022-12-24T09:39:11.852Z,31.90
2022-12-24T09:42:36.772Z,35.53
2022-12-24T09:45:41.954Z,37.80
2022-12-24T09:48:47.748Z,37.77
2022-12-24T09:51:52.502Z,49.00
2022-12-24T09:55:01.498Z,49.67
2022-12-24T09:58:05.053Z,42.00
2022-12-24T10:01:07.229Z,39.43
2022-12-24T10:04:16.618Z,40.73
2022-12-24T10:07:30.416Z,37.97
2022-12-24T10:10:58.858Z,31.20
2022-12-24T10:14:08.655Z,30.33
2022-12-24T10:17:36.659Z,34.93
2022-12-24T10:20:56.354Z,33.73
2022-12-24T10:24:05.133Z,30.13
2022-12-24T10:27:16.292Z,33.70
2022-12-24T10:30:22.115Z,32.63
2022-12-24T10:33:32.552Z,29.73
2022-12-24T10:36:34.161Z,33.10
2022-12-24T10:39:35.982Z,30.73
2022-12-24T10:42:50.571Z,26.13
2022-12-24T10:45:56.875Z,27.73
2022-12-24T10:49:03.852Z,27.37
2022-12-24T10:52:12.528Z,23.00
2022-12-24T10:55:17.227Z,14.87
2022-12-24T10:58:19.861Z,18.00
2022-12-24T11:01:44.662Z,30.40
2022-12-24T11:04:47.813Z,33.33
2022-12-24T11:07:59.470Z,34.17
2022-12-24T11:11:05.911Z,68.87
2022-12-24T11:14:14.451Z,69.37
2022-12-24T11:17:23.176Z,36.87
2022-12-24T11:20:27.001Z,26.20
2022-12-24T11:23:29.201Z,20.90
2022-12-24T11:26:31.125Z,18.30
2022-12-24T11:29:32.696Z,13.50
2022-12-24T11:32:34.384Z,24.57
2022-12-24T11:35:40.009Z,32.20
2022-12-24T11:38:41.697Z,28.17
2022-12-24T11:41:43.358Z,25.40
2022-12-24T11:44:49.488Z,24.90
2022-12-24T11:47:52.138Z,26.70
2022-12-24T11:51:01.253Z,28.70
2022-12-24T11:54:21.777Z,24.60
2022-12-24T11:57:26.637Z,23.97
2022-12-24T12:00:28.733Z,23.10
2022-12-24T12:03:39.671Z,24.40
2022-12-24T12:07:19.922Z,25.83
2022-12-24T12:10:25.964Z,24.80
2022-12-24T12:13:33.517Z,28.40
2022-12-24T12:16:55.215Z,27.77
2022-12-24T12:20:04.113Z,25.90
2022-12-24T12:23:13.252Z,24.53
2022-12-24T12:26:26.335Z,25.40
2022-12-24T12:29:31.728Z,24.60
2022-12-24T12:32:49.159Z,28.17
2022-12-24T12:35:51.815Z,30.87
2022-12-24T12:38:53.538Z,35.83
2022-12-24T12:42:01.559Z,31.63
2022-12-24T12:45:21.926Z,31.10
2022-12-24T12:48:29.515Z,32.40
2022-12-24T12:51:34.263Z,34.07
2022-12-24T12:54:43.553Z,34.13
2022-12-24T12:57:46.651Z,38.70
2022-12-24T13:00:50.745Z,40.60
2022-12-24T13:03:52.487Z,47.50
2022-12-24T13:07:04.954Z,42.63
2022-12-24T13:10:23.120Z,41.43
2022-12-24T13:13:47.967Z,62.80
2022-12-24T13:17:00.577Z,63.27
2022-12-24T13:20:02.249Z,82.03
2022-12-24T13:23:11.398Z,79.07
2022-12-24T13:26:14.316Z,85.87
2022-12-24T13:29:35.017Z,72.60
2022-12-24T13:32:38.260Z,73.93
2022-12-24T13:36:00.184Z,74.43
2022-12-24T13:39:05.010Z,71.33
2022-12-24T13:42:06.878Z,66.63
2022-12-24T13:45:34.442Z,67.27
2022-12-24T13:48:36.370Z,60.50
2022-12-24T13:51:37.989Z,164.10
2022-12-24T13:54:45.303Z,65.87
2022-12-24T13:57:48.252Z,57.77
2022-12-24T14:01:03.263Z,50.73
2022-12-24T14:04:07.319Z,49.90
2022-12-24T14:07:11.419Z,50.60
2022-12-24T14:10:39.349Z,55.10
2022-12-24T14:13:40.998Z,48.20
2022-12-24T14:16:48.813Z,58.57
2022-12-24T14:19:58.585Z,68.67
2022-12-24T14:23:00.219Z,69.53
2022-12-24T14:26:02.535Z,85.93
2022-12-24T14:29:14.226Z,90.77
2022-12-24T14:32:16.752Z,82.87
2022-12-24T14:35:21.335Z,73.40
2022-12-24T14:38:23.017Z,55.37
2022-12-24T14:41:27.754Z,56.23
2022-12-24T14:44:46.328Z,48.93
2022-12-24T14:50:58.929Z,53.83
2022-12-24T14:54:03.618Z,53.90
2022-12-24T14:57:12.635Z,74.13
2022-12-24T15:00:19.164Z,92.13
2022-12-24T15:03:22.345Z,84.30
2022-12-24T15:06:24.034Z,67.43
2022-12-24T15:09:27.525Z,158.67
2022-12-24T15:12:29.386Z,213.87
2022-12-24T15:15:31.398Z,82.23
2022-12-24T15:18:34.329Z,111.57
2022-12-24T15:21:44.198Z,214.60
2022-12-24T15:24:46.873Z,115.67
2022-12-24T15:27:48.572Z,131.20
2022-12-24T15:31:03.946Z,141.57
2022-12-24T15:34:05.686Z,152.43
2022-12-24T15:40:24.457Z,143.20
2022-12-24T15:43:26.609Z,115.73
2022-12-24T15:46:29.637Z,75.40
2022-12-24T15:49:32.601Z,83.80
2022-12-24T15:52:39.339Z,86.53
2022-12-24T15:55:43.570Z,90.07
2022-12-24T15:58:45.638Z,92.83
2022-12-24T16:01:48.248Z,91.53
2022-12-24T16:04:49.934Z,96.87
2022-12-24T16:08:09.957Z,93.53
2022-12-24T16:11:16.024Z,104.73
2022-12-24T16:14:20.373Z,116.30
2022-12-24T16:17:23.215Z,111.90
2022-12-24T16:20:24.789Z,125.17
2022-12-24T16:23:29.761Z,144.23
2022-12-24T16:26:31.333Z,133.27
2022-12-24T16:29:32.965Z,143.27
2022-12-24T16:32:35.967Z,116.10
2022-12-24T16:35:38.623Z,143.37
2022-12-24T16:38:59.251Z,136.97
2022-12-24T16:42:20.528Z,107.67
2022-12-24T16:45:22.157Z,106.60
2022-12-24T16:48:24.788Z,128.00
2022-12-24T16:51:26.333Z,134.53
2022-12-24T16:54:30.063Z,112.53
2022-12-24T16:57:33.224Z,116.07
2022-12-24T17:00:36.198Z,118.70
2022-12-24T17:03:37.999Z,120.80
2022-12-24T17:06:39.809Z,118.00
2022-12-24T17:09:41.409Z,131.63
2022-12-24T17:12:43.306Z,122.03
2022-12-24T17:15:45.005Z,115.03
2022-12-24T17:18:47.245Z,111.37
2022-12-24T17:21:49.025Z,112.53
2022-12-24T17:24:50.573Z,110.33
2022-12-24T17:27:52.158Z,129.90
2022-12-24T17:30:53.928Z,177.90
2022-12-24T17:33:55.551Z,148.47
2022-12-24T17:36:57.241Z,126.73
2022-12-24T17:39:59.048Z,61.73
2022-12-24T17:43:00.819Z,80.57
2022-12-24T17:46:06.403Z,90.70
2022-12-24T17:49:08.370Z,123.63
2022-12-24T17:52:09.960Z,135.23
2022-12-24T17:55:11.892Z,142.17
2022-12-24T17:58:15.174Z,148.37
2022-12-24T18:01:18.600Z,156.87
2022-12-24T18:04:20.403Z,192.77
2022-12-24T18:07:22.146Z,162.13
2022-12-24T18:10:23.717Z,64.77
2022-12-24T18:13:25.528Z,70.23
2022-12-24T18:16:30.005Z,77.33
2022-12-24T18:19:31.654Z,84.53
2022-12-24T18:22:33.336Z,105.57
2022-12-24T18:25:34.966Z,118.07
2022-12-24T18:28:36.514Z,88.17
2022-12-24T18:31:38.663Z,90.70
2022-12-24T18:34:40.242Z,89.13
2022-12-24T18:37:41.947Z,104.13
2022-12-24T18:40:43.619Z,91.00
2022-12-24T18:43:45.229Z,92.40
2022-12-24T18:46:46.942Z,108.07
2022-12-24T18:49:48.530Z,98.87
2022-12-24T18:52:50.620Z,118.80
2022-12-24T18:55:52.316Z,114.70
2022-12-24T18:58:58.140Z,116.77
2022-12-24T19:01:59.854Z,127.53
2022-12-24T19:05:01.509Z,120.23
2022-12-24T19:08:22.338Z,122.77
2022-12-24T19:11:25.151Z,93.73
2022-12-24T19:14:26.895Z,99.10
2022-12-24T19:17:28.700Z,87.00
2022-12-24T19:20:30.364Z,91.53
2022-12-24T19:23:31.931Z,103.60
2022-12-24T19:26:33.501Z,110.00
2022-12-24T19:29:35.651Z,117.30
2022-12-24T19:32:37.997Z,128.40
2022-12-24T19:35:39.751Z,118.57
2022-12-24T19:38:41.450Z,116.27
2022-12-24T19:41:43.072Z,116.57
2022-12-24T19:44:44.678Z,183.37
2022-12-24T19:47:49.893Z,146.37
2022-12-24T19:50:51.535Z,143.50
2022-12-24T19:53:57.343Z,142.87
2022-12-24T19:56:58.905Z,149.40
2022-12-24T20:00:00.596Z,151.43
2022-12-24T20:03:02.485Z,166.53
2022-12-24T20:06:04.443Z,147.47
2022-12-24T20:09:07.507Z,133.87
2022-12-24T20:12:09.175Z,129.00
2022-12-24T20:15:11.418Z,133.27
2022-12-24T20:18:13.731Z,132.73
2022-12-24T20:21:15.347Z,117.20
2022-12-24T20:24:17.104Z,139.03
2022-12-24T20:27:18.737Z,116.90
2022-12-24T20:30:20.382Z,122.03
2022-12-24T20:33:21.965Z,130.53
2022-12-24T20:36:24.465Z,112.40
2022-12-24T20:39:26.130Z,102.33
2022-12-24T20:42:27.751Z,97.53
2022-12-24T20:45:29.411Z,76.60
2022-12-24T20:48:31.343Z,53.40
2022-12-24T20:51:33.010Z,27.37
2022-12-24T20:54:34.552Z,39.07
2022-12-24T20:57:36.807Z,93.70
2022-12-24T21:00:38.684Z,32.13
2022-12-24T21:03:40.458Z,22.63
2022-12-24T21:06:43.197Z,23.03
2022-12-24T21:09:44.830Z,22.23
2022-12-24T21:12:49.310Z,27.70
2022-12-24T21:15:51.480Z,30.00
2022-12-24T21:18:53.184Z,24.00
2022-12-24T21:21:55.204Z,16.73
2022-12-24T21:24:56.880Z,18.33
2022-12-24T21:27:58.590Z,20.30
2022-12-24T21:31:00.262Z,15.87
2022-12-24T21:34:02.031Z,15.20
2022-12-24T21:37:03.795Z,16.23
2022-12-24T21:40:05.831Z,16.13
2022-12-24T21:43:10.129Z,15.93
2022-12-24T21:46:13.196Z,13.43
2022-12-24T21:49:33.321Z,13.57
2022-12-24T21:52:34.980Z,12.87
2022-12-24T21:55:36.620Z,12.83
2022-12-24T21:58:38.237Z,13.50
2022-12-24T22:01:39.888Z,11.00
2022-12-24T22:04:42.000Z,9.83
2022-12-24T22:08:02.133Z,10.07
2022-12-24T22:11:22.284Z,8.70
2022-12-24T22:14:23.909Z,8.07
2022-12-24T22:17:26.075Z,10.90
2022-12-24T22:20:27.851Z,9.37
2022-12-24T22:23:29.482Z,13.70
2022-12-24T22:26:31.050Z,8.83
2022-12-24T22:29:33.401Z,8.17
2022-12-24T22:32:35.141Z,7.63
2022-12-24T22:35:37.682Z,7.63
2022-12-24T22:38:42.313Z,7.77
2022-12-24T22:41:43.994Z,9.13
2022-12-24T22:44:47.251Z,7.60
2022-12-24T22:47:49.402Z,7.63
2022-12-24T22:50:51.135Z,9.90
2022-12-24T22:53:52.730Z,13.00
2022-12-24T22:56:54.377Z,13.63
2022-12-24T22:59:55.986Z,7.70
2022-12-24T23:02:57.648Z,8.63
2022-12-24T23:06:00.497Z,9.97
2022-12-24T23:09:03.110Z,11.10
2022-12-24T23:12:05.032Z,10.80
2022-12-24T23:15:07.048Z,7.83
2022-12-24T23:18:09.143Z,6.90
2022-12-24T23:21:10.836Z,7.97
2022-12-24T23:24:12.458Z,6.40
2022-12-24T23:27:14.058Z,6.30
2022-12-24T23:30:15.741Z,6.57
2022-12-24T23:33:17.321Z,5.80
2022-12-24T23:36:19.649Z,6.23
2022-12-24T23:39:21.332Z,5.90
2022-12-24T23:42:22.973Z,6.70
2022-12-24T23:45:24.614Z,5.97
2022-12-24T23:48:26.691Z,6.67
2022-12-24T23:51:28.556Z,5.43
2022-12-24T23:54:30.205Z,5.40
2022-12-24T23:57:31.815Z,6.03
